Portada
METAR-TAF:

METAR-TAF

Aeropuertos :

Mendoza, Argentina

Aeropuerto Internacional Gobernador Francisco Gabrielli

latitud: 32-50S, longitud: 068-47W, altitud: 705 m

Observación

El informe se hizo hace 56 minutos, a las 22:00 UTC
Viento 5 kt del noreste
Temperatura 16°C
Humedad 51%
Presión 1022 hPa
Visibilidad 10 km o más
sin nubes por debajo de 1500 m y sin presencia de cumulonimbus.

METAR: SAME 202200Z 05005KT CAVOK 16/06 Q1022

Hora: 19:56 (22:56 UTC)

Pronóstico

El informe se hizo hace 5 horas y 56 minutos, a las 17:00 UTC
Pronóstico válido del 20 a las 18 UTC al 21 a las 18 UTC
Viento 5 kt del sureste
Visibilidad 10 km o más
sin nubes por debajo de 1500 m y sin presencia de cumulonimbus.
Probabilidad 40% :
Temporalmente
del 21 a las 10 UTC al 21 a las 12 UTC
Viento kt del norte
Visibilidad: 6000 m
Cielo despejado

TAF: SAME 201700Z 2018/2118 14005KT CAVOK TX19/2020Z TN03/2110Z PROB40 TEMPO 2110/2112 00000KT 6000 FUHZ SKC

Observaciones y pronósticos meteorológicos de más de 4000 aeropuertos (mensajes METAR y TAF).

Los puntos amarillos y rojos representan las estaciones disponibles.

Ponga el ratón en el punto deseado para ver el nombre de la estación.

Haga clic para ver las observaciones y los pronósticos meteorológicos.

Para cambiar el mapa : haga clic en los botones verdes con una cruz de color negro para hacer un zoom, en el botón verde con un guión para alejar o en las flechas verdes para mapas adyacentes.


METAR-TAF: